Time,TemperatureF,DewpointF,PressureIn,WindDirection,WindDirectionDegrees,WindSpeedMPH,WindSpeedGustMPH,Humidity,HourlyPrecipIn,Conditions,Clouds,dailyrainin,SoftwareType,DateUTC
2013-01-26 00:01:00,0.0,-3.0,29.67,East,86,0.0,0.0,85,0.00,,,0.00,,2013-01-26 09:01:00,
2013-01-26 00:11:00,0.0,-3.0,29.67,East,86,0.0,0.0,85,0.00,,,0.00,,2013-01-26 09:11:00,
2013-01-26 00:22:00,0.0,-3.0,29.67,East,86,0.0,1.0,85,0.00,,,0.00,,2013-01-26 09:22:00,
2013-01-26 00:31:00,-1.0,-4.0,29.68,East,86,0.0,0.0,85,0.00,,,0.00,,2013-01-26 09:31:00,
2013-01-26 00:42:00,-1.0,-4.0,29.68,East,86,0.0,0.0,85,0.00,,,0.00,,2013-01-26 09:42:00,
2013-01-26 00:51:00,-1.0,-4.0,29.68,East,86,0.0,0.0,85,0.00,,,0.00,,2013-01-26 09:51:00,
2013-01-26 01:01:00,-1.0,-4.0,29.68,East,86,0.0,0.0,85,0.00,,,0.00,,2013-01-26 10:01:00,
2013-01-26 01:11:00,-1.0,-4.0,29.68,East,86,0.0,0.0,85,0.00,,,0.00,,2013-01-26 10:11:00,
2013-01-26 01:21:00,-1.0,-4.0,29.69,East,86,0.0,0.0,86,0.00,,,0.00,,2013-01-26 10:21:00,
2013-01-26 01:31:00,-1.0,-4.0,29.69,East,86,0.0,0.0,85,0.00,,,0.00,,2013-01-26 10:31:00,
2013-01-26 01:42:00,-1.0,-4.0,29.69,East,86,0.0,0.0,85,0.00,,,0.00,,2013-01-26 10:42:00,
2013-01-26 01:52:00,-1.0,-4.0,29.69,East,86,0.0,0.0,85,0.00,,,0.00,,2013-01-26 10:52:00,
2013-01-26 02:01:00,-1.0,-4.0,29.70,East,86,0.0,0.0,85,0.00,,,0.00,,2013-01-26 11:01:00,
2013-01-26 02:12:00,-1.0,-4.0,29.70,East,86,0.0,0.0,85,0.00,,,0.00,,2013-01-26 11:12:00,
2013-01-26 02:22:00,-2.0,-5.0,29.70,East,86,0.0,0.0,85,0.00,,,0.00,,2013-01-26 11:22:00,
2013-01-26 02:32:00,-2.0,-6.0,29.71,East,86,0.0,0.0,84,0.00,,,0.00,,2013-01-26 11:32:00,
2013-01-26 02:42:00,-2.0,-6.0,29.71,East,86,0.0,0.0,84,0.00,,,0.00,,2013-01-26 11:42:00,
2013-01-26 02:52:00,-2.0,-6.0,29.71,East,86,0.0,0.0,84,0.00,,,0.00,,2013-01-26 11:52:00,
2013-01-26 03:01:00,-3.0,-7.0,29.71,East,86,0.0,0.0,83,0.00,,,0.00,,2013-01-26 12:01:00,
2013-01-26 03:12:00,-3.0,-7.0,29.71,East,86,0.0,0.0,83,0.00,,,0.00,,2013-01-26 12:12:00,
2013-01-26 03:22:00,-3.0,-7.0,29.71,East,86,0.0,1.0,84,0.00,,,0.00,,2013-01-26 12:22:00,
2013-01-26 03:33:00,-4.0,-8.0,29.71,East,86,0.0,1.0,84,0.00,,,0.00,,2013-01-26 12:33:00,
2013-01-26 03:42:00,-4.0,-8.0,29.71,East,86,0.0,1.0,84,0.00,,,0.00,,2013-01-26 12:42:00,
2013-01-26 03:52:00,-4.0,-8.0,29.71,East,86,0.0,1.0,84,0.00,,,0.00,,2013-01-26 12:52:00,
2013-01-26 04:03:00,-5.0,-9.0,29.72,East,86,0.0,1.0,84,0.00,,,0.00,,2013-01-26 13:03:00,
2013-01-26 04:12:00,-5.0,-9.0,29.72,East,86,0.0,1.0,84,0.00,,,0.00,,2013-01-26 13:12:00,
2013-01-26 04:22:00,-5.0,-9.0,29.72,East,86,0.0,0.0,84,0.00,,,0.00,,2013-01-26 13:22:00,
2013-01-26 04:32:00,-5.0,-9.0,29.72,East,86,0.0,0.0,83,0.00,,,0.00,,2013-01-26 13:32:00,
2013-01-26 04:42:00,-5.0,-9.0,29.72,East,86,0.0,0.0,83,0.00,,,0.00,,2013-01-26 13:42:00,
2013-01-26 05:02:00,-6.0,-10.0,29.72,East,86,0.0,0.0,83,0.00,,,0.00,,2013-01-26 14:02:00,
2013-01-26 05:21:00,-7.0,-11.0,29.72,East,86,0.0,1.0,83,0.00,,,0.00,,2013-01-26 14:21:00,
2013-01-26 05:31:00,-7.0,-11.0,29.72,East,86,0.0,1.0,83,0.00,,,0.00,,2013-01-26 14:31:00,
2013-01-26 05:42:00,-7.0,-11.0,29.72,East,86,0.0,1.0,83,0.00,,,0.00,,2013-01-26 14:42:00,
2013-01-26 05:52:00,-7.0,-11.0,29.73,East,86,0.0,1.0,83,0.00,,,0.00,,2013-01-26 14:52:00,
2013-01-26 06:02:00,-8.0,-12.0,29.74,East,86,0.0,0.0,83,0.00,,,0.00,,2013-01-26 15:02:00,
2013-01-26 06:12:00,-8.0,-12.0,29.74,East,86,0.0,0.0,83,0.00,,,0.00,,2013-01-26 15:12:00,
2013-01-26 06:21:00,-8.0,-12.0,29.74,East,86,0.0,0.0,83,0.00,,,0.00,,2013-01-26 15:21:00,
2013-01-26 06:32:00,-8.0,-12.0,29.74,East,86,0.0,0.0,83,0.00,,,0.00,,2013-01-26 15:32:00,
2013-01-26 06:42:00,-8.0,-12.0,29.74,East,86,0.0,0.0,83,0.00,,,0.00,,2013-01-26 15:42:00,
2013-01-26 06:52:00,-8.0,-12.0,29.74,East,86,0.0,1.0,83,0.00,,,0.00,,2013-01-26 15:52:00,
2013-01-26 07:01:00,-9.0,-13.0,29.75,East,86,0.0,1.0,83,0.00,,,0.00,,2013-01-26 16:01:00,
2013-01-26 07:11:00,-9.0,-13.0,29.75,East,86,0.0,1.0,83,0.00,,,0.00,,2013-01-26 16:11:00,
2013-01-26 07:21:00,-9.0,-13.0,29.75,East,86,0.0,0.0,83,0.00,,,0.00,,2013-01-26 16:21:00,
2013-01-26 07:32:00,-9.0,-13.0,29.75,East,86,0.0,0.0,83,0.00,,,0.00,,2013-01-26 16:32:00,
2013-01-26 07:42:00,-9.0,-13.0,29.75,East,86,0.0,0.0,83,0.00,,,0.00,,2013-01-26 16:42:00,
2013-01-26 07:52:00,-9.0,-13.0,29.75,East,86,0.0,0.0,83,0.00,,,0.00,,2013-01-26 16:52:00,
2013-01-26 08:02:00,-9.0,-13.0,29.75,East,86,0.0,0.0,83,0.00,,,0.00,,2013-01-26 17:02:00,
2013-01-26 08:12:00,-9.0,-13.0,29.75,East,86,0.0,0.0,83,0.00,,,0.00,,2013-01-26 17:12:00,
2013-01-26 08:22:00,-9.0,-13.0,29.75,East,86,0.0,0.0,83,0.00,,,0.00,,2013-01-26 17:22:00,
2013-01-26 08:32:00,-10.0,-14.0,29.76,East,86,0.0,0.0,83,0.00,,,0.00,,2013-01-26 17:32:00,
2013-01-26 08:41:00,-10.0,-14.0,29.76,East,86,0.0,0.0,83,0.00,,,0.00,,2013-01-26 17:41:00,
2013-01-26 08:52:00,-10.0,-14.0,29.76,East,86,0.0,0.0,83,0.00,,,0.00,,2013-01-26 17:52:00,
2013-01-26 09:02:00,-10.0,-14.0,29.77,East,86,0.0,0.0,82,0.00,,,0.00,,2013-01-26 18:02:00,
2013-01-26 09:11:00,-10.0,-14.0,29.77,East,86,0.0,0.0,82,0.00,,,0.00,,2013-01-26 18:11:00,
2013-01-26 09:22:00,-10.0,-14.0,29.77,East,86,0.0,1.0,82,0.00,,,0.00,,2013-01-26 18:22:00,
2013-01-26 09:32:00,-11.0,-15.0,29.78,East,86,0.0,0.0,82,0.00,,,0.00,,2013-01-26 18:32:00,
2013-01-26 09:41:00,-11.0,-15.0,29.78,East,86,0.0,0.0,82,0.00,,,0.00,,2013-01-26 18:41:00,
2013-01-26 09:52:00,-11.0,-15.0,29.78,East,86,0.0,0.0,82,0.00,,,0.00,,2013-01-26 18:52:00,
2013-01-26 10:03:00,-11.0,-15.0,29.78,East,86,0.0,0.0,82,0.00,,,0.00,,2013-01-26 19:03:00,
2013-01-26 10:11:00,-11.0,-15.0,29.78,East,86,0.0,0.0,82,0.00,,,0.00,,2013-01-26 19:11:00,
2013-01-26 10:22:00,-11.0,-15.0,29.79,East,86,0.0,0.0,82,0.00,,,0.00,,2013-01-26 19:22:00,
2013-01-26 10:32:00,-11.0,-15.0,29.79,East,86,0.0,1.0,83,0.00,,,0.00,,2013-01-26 19:32:00,
2013-01-26 10:42:00,-11.0,-15.0,29.79,East,86,0.0,1.0,83,0.00,,,0.00,,2013-01-26 19:42:00,
2013-01-26 10:52:00,-11.0,-15.0,29.79,East,86,0.0,1.0,83,0.00,,,0.00,,2013-01-26 19:52:00,
2013-01-26 11:02:00,-10.0,-14.0,29.79,East,86,0.0,1.0,83,0.00,,,0.00,,2013-01-26 20:02:00,
2013-01-26 11:11:00,-10.0,-14.0,29.79,East,86,0.0,1.0,83,0.00,,,0.00,,2013-01-26 20:11:00,
2013-01-26 11:21:00,-10.0,-13.0,29.80,East,86,0.0,0.0,84,0.00,,,0.00,,2013-01-26 20:21:00,
2013-01-26 11:32:00,-10.0,-13.0,29.80,East,86,0.0,0.0,84,0.00,,,0.00,,2013-01-26 20:32:00,
2013-01-26 11:41:00,-10.0,-13.0,29.80,East,86,0.0,0.0,84,0.00,,,0.00,,2013-01-26 20:41:00,
2013-01-26 11:52:00,-8.0,-11.0,29.80,East,86,0.0,1.0,86,0.00,,,0.00,,2013-01-26 20:52:00,
2013-01-26 12:02:00,-6.0,-9.0,29.80,East,96,0.0,1.0,87,0.00,,,0.00,,2013-01-26 21:02:00,
2013-01-26 12:12:00,-6.0,-9.0,29.80,East,96,0.0,1.0,87,0.00,,,0.00,,2013-01-26 21:12:00,
2013-01-26 12:22:00,-6.0,-9.0,29.80,East,96,0.0,1.0,87,0.00,,,0.00,,2013-01-26 21:22:00,
2013-01-26 12:32:00,-1.0,-4.0,29.81,SSE,161,1.0,2.0,88,0.00,,,0.00,,2013-01-26 21:32:00,
2013-01-26 12:42:00,-1.0,-4.0,29.81,SSE,161,1.0,2.0,88,0.00,,,0.00,,2013-01-26 21:42:00,
2013-01-26 12:52:00,2.0,-1.0,29.80,SSE,161,0.0,3.0,86,0.00,,,0.00,,2013-01-26 21:52:00,
2013-01-26 13:01:00,5.0,0.0,29.81,South,182,0.0,3.0,79,0.00,,,0.00,,2013-01-26 22:01:00,
2013-01-26 13:11:00,5.0,0.0,29.81,South,182,0.0,3.0,79,0.00,,,0.00,,2013-01-26 22:11:00,
2013-01-26 13:21:00,6.0,0.0,29.81,South,173,1.0,3.0,75,0.00,,,0.00,,2013-01-26 22:21:00,
2013-01-26 13:31:00,7.0,-1.0,29.81,SSE,161,1.0,3.0,70,0.00,,,0.00,,2013-01-26 22:31:00,
2013-01-26 13:41:00,7.0,-1.0,29.81,SSE,161,1.0,3.0,70,0.00,,,0.00,,2013-01-26 22:41:00,
2013-01-26 13:51:00,7.0,-2.0,29.81,South,180,1.0,3.0,65,0.00,,,0.00,,2013-01-26 22:51:00,
2013-01-26 14:01:00,8.0,-2.0,29.81,SE,142,1.0,3.0,64,0.00,,,0.00,,2013-01-26 23:01:00,
2013-01-26 14:11:00,8.0,-2.0,29.81,SE,142,1.0,3.0,64,0.00,,,0.00,,2013-01-26 23:11:00,
2013-01-26 14:21:00,8.0,-2.0,29.81,SE,143,1.0,3.0,62,0.00,,,0.00,,2013-01-26 23:21:00,
2013-01-26 14:32:00,8.0,-2.0,29.82,SSE,159,1.0,3.0,62,0.00,,,0.00,,2013-01-26 23:32:00,
2013-01-26 14:41:00,8.0,-2.0,29.82,SSE,159,1.0,3.0,62,0.00,,,0.00,,2013-01-26 23:41:00,
2013-01-26 14:52:00,8.0,-2.0,29.82,SSE,159,1.0,3.0,62,0.00,,,0.00,,2013-01-26 23:52:00,
2013-01-26 15:01:00,8.0,-3.0,29.82,SE,143,1.0,3.0,60,0.00,,,0.00,,2013-01-27 00:01:00,
2013-01-26 15:11:00,8.0,-3.0,29.82,SE,143,1.0,3.0,60,0.00,,,0.00,,2013-01-27 00:11:00,
2013-01-26 15:21:00,8.0,-3.0,29.82,SE,142,1.0,3.0,61,0.00,,,0.00,,2013-01-27 00:21:00,
2013-01-26 15:32:00,8.0,-3.0,29.83,SE,142,0.0,2.0,60,0.00,,,0.00,,2013-01-27 00:32:00,
2013-01-26 15:41:00,8.0,-3.0,29.83,SE,142,0.0,2.0,60,0.00,,,0.00,,2013-01-27 00:41:00,
2013-01-26 15:51:00,8.0,-3.0,29.83,SE,142,1.0,2.0,60,0.00,,,0.00,,2013-01-27 00:51:00,
2013-01-26 16:01:00,8.0,-3.0,29.83,SE,144,0.0,2.0,61,0.00,,,0.00,,2013-01-27 01:01:00,
2013-01-26 16:11:00,8.0,-3.0,29.83,SE,144,0.0,2.0,61,0.00,,,0.00,,2013-01-27 01:11:00,
2013-01-26 16:22:00,8.0,-3.0,29.83,SE,144,0.0,2.0,61,0.00,,,0.00,,2013-01-27 01:22:00,
2013-01-26 16:32:00,7.0,-3.0,29.84,SE,144,0.0,1.0,64,0.00,,,0.00,,2013-01-27 01:32:00,
2013-01-26 16:41:00,7.0,-3.0,29.84,SE,144,0.0,1.0,64,0.00,,,0.00,,2013-01-27 01:41:00,
2013-01-26 16:52:00,6.0,-3.0,29.84,SE,144,0.0,1.0,65,0.00,,,0.00,,2013-01-27 01:52:00,
2013-01-26 17:01:00,5.0,-4.0,29.84,SE,144,0.0,0.0,67,0.00,,,0.00,,2013-01-27 02:01:00,
2013-01-26 17:11:00,5.0,-4.0,29.84,SE,144,0.0,0.0,67,0.00,,,0.00,,2013-01-27 02:11:00,
2013-01-26 17:21:00,5.0,-4.0,29.84,SE,144,0.0,0.0,67,0.00,,,0.00,,2013-01-27 02:21:00,
2013-01-26 17:31:00,2.0,-6.0,29.84,SE,144,0.0,1.0,70,0.00,,,0.00,,2013-01-27 02:31:00,
2013-01-26 17:41:00,2.0,-6.0,29.84,SE,144,0.0,1.0,70,0.00,,,0.00,,2013-01-27 02:41:00,
2013-01-26 17:52:00,2.0,-6.0,29.84,SE,144,0.0,1.0,70,0.00,,,0.00,,2013-01-27 02:52:00,
2013-01-26 18:01:00,1.0,-6.0,29.84,SE,144,0.0,1.0,73,0.00,,,0.00,,2013-01-27 03:01:00,
2013-01-26 18:11:00,1.0,-6.0,29.84,SE,144,0.0,1.0,73,0.00,,,0.00,,2013-01-27 03:11:00,
2013-01-26 18:21:00,0.0,-6.0,29.85,SE,144,0.0,0.0,74,0.00,,,0.00,,2013-01-27 03:21:00,
2013-01-26 18:31:00,-1.0,-7.0,29.85,SE,144,0.0,0.0,75,0.00,,,0.00,,2013-01-27 03:31:00,
2013-01-26 18:41:00,-1.0,-7.0,29.85,SE,144,0.0,0.0,75,0.00,,,0.00,,2013-01-27 03:41:00,
2013-01-26 18:51:00,-2.0,-8.0,29.85,SE,144,0.0,1.0,76,0.00,,,0.00,,2013-01-27 03:51:00,
2013-01-26 19:01:00,-2.0,-8.0,29.85,SE,144,0.0,1.0,76,0.00,,,0.00,,2013-01-27 04:01:00,
2013-01-26 19:11:00,-2.0,-8.0,29.85,SE,144,0.0,1.0,76,0.00,,,0.00,,2013-01-27 04:11:00,
2013-01-26 19:21:00,-3.0,-8.0,29.85,SE,144,0.0,0.0,78,0.00,,,0.00,,2013-01-27 04:21:00,
2013-01-26 19:31:00,-4.0,-9.0,29.86,SE,144,0.0,0.0,79,0.00,,,0.00,,2013-01-27 04:31:00,
2013-01-26 19:41:00,-4.0,-9.0,29.86,SE,144,0.0,0.0,79,0.00,,,0.00,,2013-01-27 04:41:00,
2013-01-26 19:51:00,-4.0,-9.0,29.87,SE,144,0.0,0.0,79,0.00,,,0.00,,2013-01-27 04:51:00,
2013-01-26 20:03:00,-5.0,-10.0,29.88,SE,144,0.0,1.0,80,0.00,,,0.00,,2013-01-27 05:03:00,
2013-01-26 20:11:00,-5.0,-10.0,29.88,SE,144,0.0,1.0,80,0.00,,,0.00,,2013-01-27 05:11:00,
2013-01-26 20:22:00,-5.0,-10.0,29.88,SE,144,0.0,0.0,80,0.00,,,0.00,,2013-01-27 05:22:00,
2013-01-26 20:31:00,-6.0,-10.0,29.88,SE,144,0.0,0.0,81,0.00,,,0.00,,2013-01-27 05:31:00,
2013-01-26 20:41:00,-6.0,-10.0,29.88,SE,144,0.0,0.0,81,0.00,,,0.00,,2013-01-27 05:41:00,
2013-01-26 20:51:00,-6.0,-10.0,29.88,SE,144,0.0,1.0,81,0.00,,,0.00,,2013-01-27 05:51:00,
2013-01-26 21:01:00,-6.0,-10.0,29.88,SE,144,0.0,1.0,82,0.00,,,0.00,,2013-01-27 06:01:00,
2013-01-26 21:11:00,-6.0,-10.0,29.88,SE,144,0.0,1.0,82,0.00,,,0.00,,2013-01-27 06:11:00,
2013-01-26 21:21:00,-6.0,-10.0,29.88,SE,144,0.0,1.0,81,0.00,,,0.00,,2013-01-27 06:21:00,
2013-01-26 21:31:00,-7.0,-11.0,29.89,SE,144,0.0,0.0,81,0.00,,,0.00,,2013-01-27 06:31:00,
2013-01-26 21:41:00,-7.0,-11.0,29.89,SE,144,0.0,0.0,81,0.00,,,0.00,,2013-01-27 06:41:00,
2013-01-26 21:51:00,-7.0,-11.0,29.89,SE,144,0.0,0.0,82,0.00,,,0.00,,2013-01-27 06:51:00,
2013-01-26 22:01:00,-8.0,-12.0,29.89,SE,144,0.0,1.0,82,0.00,,,0.00,,2013-01-27 07:01:00,
2013-01-26 22:13:00,-8.0,-12.0,29.89,SE,144,0.0,1.0,82,0.00,,,0.00,,2013-01-27 07:13:00,
2013-01-26 22:21:00,-8.0,-12.0,29.89,SE,144,0.0,1.0,82,0.00,,,0.00,,2013-01-27 07:21:00,
2013-01-26 22:31:00,-8.0,-12.0,29.90,SE,144,0.0,0.0,82,0.00,,,0.00,,2013-01-27 07:31:00,
2013-01-26 22:41:00,-8.0,-12.0,29.90,SE,144,0.0,0.0,82,0.00,,,0.00,,2013-01-27 07:41:00,
2013-01-26 22:51:00,-8.0,-12.0,29.90,SE,144,0.0,1.0,83,0.00,,,0.00,,2013-01-27 07:51:00,
2013-01-26 23:01:00,-9.0,-13.0,29.90,SE,144,0.0,0.0,82,0.00,,,0.00,,2013-01-27 08:01:00,
2013-01-26 23:11:00,-9.0,-13.0,29.90,SE,144,0.0,0.0,82,0.00,,,0.00,,2013-01-27 08:11:00,
2013-01-26 23:21:00,-9.0,-13.0,29.90,SE,144,0.0,0.0,82,0.00,,,0.00,,2013-01-27 08:21:00,
2013-01-26 23:31:00,-9.0,-11.0,29.91,SE,144,0.0,0.0,92,0.00,,,0.00,,2013-01-27 08:31:00,
2013-01-26 23:41:00,-9.0,-11.0,29.91,SE,144,0.0,0.0,92,0.00,,,0.00,,2013-01-27 08:41:00,
2013-01-26 23:52:00,-10.0,-14.0,29.91,SE,144,0.0,0.0,82,0.00,,,0.00,,2013-01-27 08:52:00,